Time;durP1;ratioP1;P1;durP2;ratioP2;P2;SDS_P1;SDS_P2;PMS_P1;PMS_P2;Temp;Humidity;BMP_temperature;BMP_pressure;BME280_temperature;BME280_humidity;BME280_pressure;Samples;Min_cycle;Max_cycle;Signal;HPM_P1;HPM_P2
2021/11/05 00:02:18;;;;;;;4.30;2.90;;;;;;;;;;769034;180;918299;-63
2021/11/05 00:04:43;;;;;;;4.70;3.40;;;;;;;;;;766786;180;919216;-63
2021/11/05 00:07:09;;;;;;;6.37;3.70;;;;;;;;;;772778;180;922083;-62
2021/11/05 00:09:35;;;;;;;3.78;2.90;;;;;;;;;;770057;180;915065;-64
2021/11/05 00:12:01;;;;;;;5.20;3.80;;;;;;;;;;765868;180;918694;-64
2021/11/05 00:14:27;;;;;;;4.90;3.23;;;;;;;;;;769671;181;919132;-63
2021/11/05 00:16:53;;;;;;;8.13;3.50;;;;;;;;;;767493;180;919769;-64
2021/11/05 00:19:18;;;;;;;3.93;2.80;;;;;;;;;;769301;180;1084221;-64
2021/11/05 00:21:44;;;;;;;4.70;3.40;;;;;;;;;;773853;180;914604;-63
2021/11/05 00:24:10;;;;;;;3.43;2.93;;;;;;;;;;769194;180;918851;-63
2021/11/05 00:26:36;;;;;;;5.43;3.70;;;;;;;;;;768024;180;919036;-61
2021/11/05 00:29:02;;;;;;;3.70;2.80;;;;;;;;;;765852;180;915232;-61
2021/11/05 00:31:28;;;;;;;3.93;2.80;;;;;;;;;;772358;180;918864;-61
2021/11/05 00:33:53;;;;;;;3.50;3.03;;;;;;;;;;767938;180;921027;-62
2021/11/05 00:36:19;;;;;;;4.90;3.80;;;;;;;;;;767548;179;921543;-61
2021/11/05 00:38:45;;;;;;;4.27;3.50;;;;;;;;;;775343;180;919230;-61
2021/11/05 00:41:11;;;;;;;5.37;3.67;;;;;;;;;;770435;180;918438;-62
2021/11/05 00:43:37;;;;;;;3.77;3.37;;;;;;;;;;769186;180;947195;-61
2021/11/05 00:46:03;;;;;;;4.37;3.70;;;;;;;;;;771987;180;924678;-61
2021/11/05 00:48:28;;;;;;;4.37;3.37;;;;;;;;;;767730;180;928291;-61
2021/11/05 00:50:54;;;;;;;4.10;3.33;;;;;;;;;;766558;179;919180;-61
2021/11/05 00:53:21;;;;;;;4.25;3.50;;;;;;;;;;770819;180;920142;-60
2021/11/05 00:55:46;;;;;;;4.57;3.33;;;;;;;;;;770792;180;917273;-61
2021/11/05 00:58:12;;;;;;;5.60;4.20;;;;;;;;;;760173;181;917704;-62
2021/11/05 01:00:38;;;;;;;4.67;3.30;;;;;;;;;;766978;180;913641;-63
2021/11/05 01:03:04;;;;;;;4.00;3.17;;;;;;;;;;774087;180;912818;-63
2021/11/05 01:05:30;;;;;;;6.00;4.00;;;;;;;;;;768670;179;912831;-62
2021/11/05 01:07:56;;;;;;;5.67;4.10;;;;;;;;;;769031;180;912264;-62
2021/11/05 01:10:21;;;;;;;4.75;4.07;;;;;;;;;;773584;180;917375;-62
2021/11/05 01:12:47;;;;;;;5.30;3.80;;;;;;;;;;768576;180;910026;-63
2021/11/05 01:15:13;;;;;;;4.90;3.60;;;;;;;;;;768364;180;916880;-63
2021/11/05 01:17:39;;;;;;;6.00;3.90;;;;;;;;;;774627;180;915696;-63
2021/11/05 01:20:05;;;;;;;5.50;3.63;;;;;;;;;;766044;180;920326;-62
2021/11/05 01:22:31;;;;;;;6.27;4.60;;;;;;;;;;766926;180;929338;-62
2021/11/05 01:24:57;;;;;;;6.37;3.90;;;;;;;;;;767629;179;935969;-63
2021/11/05 01:27:23;;;;;;;5.00;3.80;;;;;;;;;;774848;180;919781;-63
2021/11/05 01:29:50;;;;;;;4.40;3.63;;;;;;;;;;769344;180;917316;-63
2021/11/05 01:32:14;;;;;;;4.13;3.73;;;;;;;;;;768234;180;917759;-64
2021/11/05 01:34:40;;;;;;;6.87;4.93;;;;;;;;;;773691;180;914960;-62
2021/11/05 01:37:06;;;;;;;4.47;4.00;;;;;;;;;;767992;180;915773;-62
2021/11/05 01:39:32;;;;;;;6.20;3.80;;;;;;;;;;769006;180;915654;-62
2021/11/05 01:41:58;;;;;;;5.00;3.37;;;;;;;;;;774384;179;915306;-62
2021/11/05 01:44:24;;;;;;;4.53;3.58;;;;;;;;;;766554;180;919509;-63
2021/11/05 01:46:50;;;;;;;5.47;4.37;;;;;;;;;;767350;179;917435;-63
2021/11/05 01:49:16;;;;;;;5.60;4.37;;;;;;;;;;770287;179;916686;-62
2021/11/05 01:51:41;;;;;;;6.57;4.10;;;;;;;;;;769497;180;916354;-62
2021/11/05 01:54:08;;;;;;;4.87;3.90;;;;;;;;;;767644;179;915864;-63
2021/11/05 01:56:33;;;;;;;4.33;3.83;;;;;;;;;;764939;179;942488;-63
2021/11/05 01:58:59;;;;;;;6.17;4.33;;;;;;;;;;773178;180;915125;-63
2021/11/05 02:01:25;;;;;;;5.47;4.53;;;;;;;;;;770511;180;915291;-63
2021/11/05 02:03:51;;;;;;;4.93;3.90;;;;;;;;;;768413;180;918845;-63
2021/11/05 02:06:16;;;;;;;5.03;4.43;;;;;;;;;;772689;180;922379;-65
2021/11/05 02:08:42;;;;;;;8.37;4.90;;;;;;;;;;772138;179;916684;-64
2021/11/05 02:11:08;;;;;;;5.27;3.70;;;;;;;;;;760141;180;2363685;-63
2021/11/05 02:13:34;;;;;;;5.15;4.10;;;;;;;;;;772474;180;915545;-63
2021/11/05 02:16:00;;;;;;;5.30;4.27;;;;;;;;;;768781;180;915986;-62
2021/11/05 02:18:26;;;;;;;6.13;5.07;;;;;;;;;;765975;180;916226;-63
2021/11/05 02:20:54;;;;;;;5.43;4.50;;;;;;;;;;766273;179;915068;-63
2021/11/05 02:23:20;;;;;;;6.93;5.90;;;;;;;;;;771549;179;916560;-63
2021/11/05 02:25:46;;;;;;;6.30;4.97;;;;;;;;;;769927;180;916241;-63
2021/11/05 02:28:12;;;;;;;5.97;5.20;;;;;;;;;;769128;180;918588;-63
2021/11/05 02:30:38;;;;;;;6.73;5.23;;;;;;;;;;774082;180;915925;-62
2021/11/05 02:33:03;;;;;;;8.70;5.00;;;;;;;;;;764480;180;915787;-63
2021/11/05 02:35:29;;;;;;;6.95;5.75;;;;;;;;;;769111;180;915953;-63
2021/11/05 02:37:55;;;;;;;6.60;5.60;;;;;;;;;;772270;180;916098;-64
2021/11/05 02:40:21;;;;;;;5.97;4.80;;;;;;;;;;767912;180;922958;-63
2021/11/05 02:42:47;;;;;;;6.67;4.73;;;;;;;;;;768675;180;916376;-64
2021/11/05 02:45:13;;;;;;;9.87;5.77;;;;;;;;;;766717;180;915057;-63
2021/11/05 02:47:40;;;;;;;6.77;4.90;;;;;;;;;;775435;180;915209;-63
2021/11/05 02:50:04;;;;;;;7.40;5.60;;;;;;;;;;771340;180;915988;-64
2021/11/05 02:52:30;;;;;;;6.97;4.83;;;;;;;;;;766695;179;922222;-63
2021/11/05 02:54:56;;;;;;;8.13;6.10;;;;;;;;;;774155;180;915564;-63
2021/11/05 02:57:22;;;;;;;7.27;5.63;;;;;;;;;;767705;180;921134;-63
2021/11/05 02:59:48;;;;;;;6.93;5.85;;;;;;;;;;770998;177;916097;-64
2021/11/05 03:02:13;;;;;;;8.73;6.00;;;;;;;;;;774949;180;916200;-63
2021/11/05 03:04:39;;;;;;;7.60;5.55;;;;;;;;;;769508;180;915944;-63
2021/11/05 03:07:06;;;;;;;6.20;5.47;;;;;;;;;;769810;180;919440;-63
2021/11/05 03:09:32;;;;;;;8.40;5.47;;;;;;;;;;769402;180;916003;-63
2021/11/05 03:11:57;;;;;;;7.27;5.83;;;;;;;;;;763553;180;915692;-64
2021/11/05 03:14:23;;;;;;;7.40;5.40;;;;;;;;;;769738;179;912018;-64
2021/11/05 03:16:49;;;;;;;7.20;5.60;;;;;;;;;;765883;180;914757;-63
2021/11/05 03:19:15;;;;;;;8.18;6.20;;;;;;;;;;772616;181;922122;-63
2021/11/05 03:21:41;;;;;;;8.50;6.73;;;;;;;;;;765529;180;916221;-64
2021/11/05 03:24:06;;;;;;;6.27;5.57;;;;;;;;;;766450;180;913068;-63
2021/11/05 03:26:32;;;;;;;6.00;5.07;;;;;;;;;;773216;180;919272;-64
2021/11/05 03:28:58;;;;;;;6.23;5.63;;;;;;;;;;767915;180;914576;-65
2021/11/05 03:31:24;;;;;;;7.30;5.80;;;;;;;;;;768034;181;908804;-64
2021/11/05 03:33:51;;;;;;;6.40;5.65;;;;;;;;;;772058;179;906130;-63
2021/11/05 03:36:16;;;;;;;7.07;6.13;;;;;;;;;;775228;179;907250;-64
2021/11/05 03:38:42;;;;;;;6.50;5.70;;;;;;;;;;762240;180;1018569;-65
2021/11/05 03:41:08;;;;;;;8.75;6.50;;;;;;;;;;766736;180;915000;-64
2021/11/05 03:43:34;;;;;;;8.23;5.50;;;;;;;;;;773278;180;916094;-64
2021/11/05 03:46:01;;;;;;;10.33;6.30;;;;;;;;;;767969;180;916698;-63
2021/11/05 03:48:26;;;;;;;8.50;6.60;;;;;;;;;;769573;180;915245;-64
2021/11/05 03:50:51;;;;;;;10.30;7.03;;;;;;;;;;772176;180;915788;-63
2021/11/05 03:53:17;;;;;;;11.70;8.70;;;;;;;;;;767721;180;1018690;-64
2021/11/05 03:55:43;;;;;;;12.50;8.47;;;;;;;;;;764717;180;1538642;-65
2021/11/05 03:58:09;;;;;;;10.90;8.20;;;;;;;;;;772799;180;919159;-64
2021/11/05 04:00:35;;;;;;;8.80;6.90;;;;;;;;;;766869;179;913907;-64
2021/11/05 04:03:01;;;;;;;9.70;6.97;;;;;;;;;;767450;180;921040;-68
2021/11/05 04:05:26;;;;;;;9.47;7.00;;;;;;;;;;766864;180;917092;-64
2021/11/05 04:07:52;;;;;;;11.37;7.33;;;;;;;;;;773577;180;917005;-65
2021/11/05 04:10:18;;;;;;;8.40;7.50;;;;;;;;;;767759;180;915154;-64
2021/11/05 04:12:44;;;;;;;7.13;6.23;;;;;;;;;;769868;180;922004;-63
2021/11/05 04:15:10;;;;;;;11.10;7.93;;;;;;;;;;775271;180;918088;-64
2021/11/05 04:17:36;;;;;;;8.57;6.70;;;;;;;;;;770839;180;913822;-64
2021/11/05 04:20:01;;;;;;;8.07;6.47;;;;;;;;;;769969;180;916232;-65
2021/11/05 04:22:28;;;;;;;10.07;6.67;;;;;;;;;;773769;180;917961;-64
2021/11/05 04:24:54;;;;;;;8.43;6.90;;;;;;;;;;768228;179;920258;-64
2021/11/05 04:27:20;;;;;;;8.10;5.72;;;;;;;;;;766623;179;917827;-65
2021/11/05 04:29:47;;;;;;;8.77;7.00;;;;;;;;;;767876;180;912114;-64
2021/11/05 04:32:12;;;;;;;8.33;6.23;;;;;;;;;;769323;180;939849;-64
2021/11/05 04:34:37;;;;;;;8.77;5.75;;;;;;;;;;761545;182;917780;-64
2021/11/05 04:37:03;;;;;;;10.00;6.73;;;;;;;;;;765342;181;907381;-65
2021/11/05 04:39:29;;;;;;;10.93;6.73;;;;;;;;;;773763;180;906269;-64
2021/11/05 04:41:55;;;;;;;8.33;6.03;;;;;;;;;;770500;180;918003;-64
2021/11/05 04:44:21;;;;;;;7.33;6.00;;;;;;;;;;769240;179;916865;-65
2021/11/05 04:46:47;;;;;;;7.90;6.20;;;;;;;;;;773450;180;924333;-66
2021/11/05 04:49:13;;;;;;;7.03;6.33;;;;;;;;;;770523;179;919027;-65
2021/11/05 04:51:39;;;;;;;11.10;6.70;;;;;;;;;;765836;179;919236;-65
2021/11/05 04:54:06;;;;;;;8.10;5.60;;;;;;;;;;766501;180;912698;-64
2021/11/05 04:56:30;;;;;;;7.53;5.60;;;;;;;;;;774009;180;918627;-65
2021/11/05 04:58:56;;;;;;;8.33;6.10;;;;;;;;;;763972;181;919224;-65
2021/11/05 05:01:22;;;;;;;6.40;5.00;;;;;;;;;;767459;181;918403;-69
2021/11/05 05:03:48;;;;;;;13.60;6.20;;;;;;;;;;777092;180;917062;-64
2021/11/05 05:06:14;;;;;;;7.25;5.72;;;;;;;;;;768322;179;919557;-65
2021/11/05 05:08:40;;;;;;;7.17;5.30;;;;;;;;;;768436;180;923489;-63
2021/11/05 05:11:06;;;;;;;7.70;6.20;;;;;;;;;;776438;180;919769;-64
2021/11/05 05:13:31;;;;;;;9.53;6.80;;;;;;;;;;770103;179;915648;-63
2021/11/05 05:15:58;;;;;;;8.83;6.63;;;;;;;;;;766783;181;911209;-66
2021/11/05 05:18:23;;;;;;;7.47;6.27;;;;;;;;;;775494;180;631061;-65
2021/11/05 05:20:49;;;;;;;9.77;6.93;;;;;;;;;;772371;180;619090;-63
2021/11/05 05:23:15;;;;;;;7.35;5.93;;;;;;;;;;770664;179;914981;-65
2021/11/05 05:25:41;;;;;;;8.50;6.70;;;;;;;;;;771579;180;918589;-64
2021/11/05 05:28:06;;;;;;;8.70;6.30;;;;;;;;;;781295;179;917217;-65
2021/11/05 05:30:32;;;;;;;9.47;6.50;;;;;;;;;;766366;179;918487;-63
2021/11/05 05:32:58;;;;;;;8.70;6.37;;;;;;;;;;771230;180;919901;-65
2021/11/05 05:35:24;;;;;;;8.23;7.20;;;;;;;;;;778241;179;915447;-65
2021/11/05 05:37:52;;;;;;;8.83;6.50;;;;;;;;;;769598;179;915962;-65
2021/11/05 05:40:16;;;;;;;9.00;7.03;;;;;;;;;;768815;181;915238;-65
2021/11/05 05:42:41;;;;;;;12.30;7.50;;;;;;;;;;777319;180;915593;-65
2021/11/05 05:45:07;;;;;;;8.67;6.37;;;;;;;;;;765301;181;1226015;-65
2021/11/05 05:47:33;;;;;;;10.97;9.10;;;;;;;;;;765343;180;924098;-63
2021/11/05 05:49:59;;;;;;;10.73;7.80;;;;;;;;;;771626;180;635993;-65
2021/11/05 05:52:25;;;;;;;10.70;8.07;;;;;;;;;;774887;180;1123161;-65
2021/11/05 05:54:51;;;;;;;10.67;7.40;;;;;;;;;;762126;180;919222;-65
2021/11/05 05:57:16;;;;;;;11.33;7.40;;;;;;;;;;760467;180;920069;-65
2021/11/05 05:59:42;;;;;;;8.37;6.70;;;;;;;;;;771151;180;918117;-65
2021/11/05 06:02:08;;;;;;;11.27;8.70;;;;;;;;;;774627;179;631635;-66
2021/11/05 06:04:36;;;;;;;16.60;9.98;;;;;;;;;;772554;180;916667;-65
2021/11/05 06:07:01;;;;;;;13.70;10.37;;;;;;;;;;775686;180;920789;-63
2021/11/05 06:09:26;;;;;;;15.67;11.30;;;;;;;;;;772626;180;951354;-65
2021/11/05 06:11:52;;;;;;;16.00;12.23;;;;;;;;;;770909;180;926694;-65
2021/11/05 06:14:17;;;;;;;12.23;8.93;;;;;;;;;;772750;180;922912;-62
2021/11/05 06:16:43;;;;;;;12.77;9.57;;;;;;;;;;762010;180;920059;-65
2021/11/05 06:19:09;;;;;;;11.47;8.63;;;;;;;;;;767085;180;937022;-65
2021/11/05 06:21:36;;;;;;;9.32;7.40;;;;;;;;;;770305;180;919892;-65
2021/11/05 06:24:02;;;;;;;12.47;8.50;;;;;;;;;;776396;180;918457;-64
2021/11/05 06:26:27;;;;;;;13.27;8.55;;;;;;;;;;771505;180;913484;-64
2021/11/05 06:28:53;;;;;;;15.20;9.43;;;;;;;;;;770443;180;922353;-64
2021/11/05 06:31:19;;;;;;;17.83;10.13;;;;;;;;;;769396;181;914512;-63
2021/11/05 06:33:45;;;;;;;13.50;9.63;;;;;;;;;;770517;178;882251;-65
2021/11/05 06:36:11;;;;;;;15.60;9.20;;;;;;;;;;767102;180;1023423;-65
2021/11/05 06:38:37;;;;;;;15.50;9.43;;;;;;;;;;774348;180;913036;-67
2021/11/05 06:41:03;;;;;;;18.67;12.30;;;;;;;;;;769718;180;895537;-63
2021/11/05 06:43:28;;;;;;;15.43;11.23;;;;;;;;;;771278;179;910767;-63
2021/11/05 06:45:55;;;;;;;17.90;11.10;;;;;;;;;;772685;179;910712;-65
2021/11/05 06:48:20;;;;;;;13.47;9.27;;;;;;;;;;763832;182;917239;-64
2021/11/05 06:50:46;;;;;;;16.48;10.13;;;;;;;;;;766396;180;914041;-64
2021/11/05 06:53:12;;;;;;;13.63;9.37;;;;;;;;;;774724;177;916001;-65
2021/11/05 06:55:37;;;;;;;17.20;10.03;;;;;;;;;;771043;180;915615;-64
2021/11/05 06:58:03;;;;;;;13.57;10.10;;;;;;;;;;766835;180;914689;-64
2021/11/05 07:00:29;;;;;;;11.60;7.87;;;;;;;;;;765680;179;912773;-62
2021/11/05 07:02:55;;;;;;;13.63;9.23;;;;;;;;;;773380;181;915297;-63
2021/11/05 07:05:22;;;;;;;12.77;8.50;;;;;;;;;;767499;181;919767;-63
2021/11/05 07:07:47;;;;;;;12.17;8.10;;;;;;;;;;772599;180;920793;-63
2021/11/05 07:10:13;;;;;;;14.00;10.40;;;;;;;;;;772005;180;919210;-63
2021/11/05 07:12:39;;;;;;;19.60;12.27;;;;;;;;;;769607;181;924759;-65
2021/11/05 07:15:05;;;;;;;19.80;12.70;;;;;;;;;;759543;181;918920;-63
2021/11/05 07:17:31;;;;;;;15.93;10.50;;;;;;;;;;764491;181;918897;-64
2021/11/05 07:19:57;;;;;;;16.13;10.70;;;;;;;;;;777599;180;918508;-64
2021/11/05 07:22:24;;;;;;;13.40;9.27;;;;;;;;;;762432;180;921418;-63
2021/11/05 07:24:48;;;;;;;16.50;10.50;;;;;;;;;;767591;180;911074;-63
2021/11/05 07:27:15;;;;;;;17.47;11.57;;;;;;;;;;774871;180;931363;-61
2021/11/05 07:29:42;;;;;;;21.17;12.63;;;;;;;;;;767779;180;912541;-61
2021/11/05 07:32:08;;;;;;;17.37;11.73;;;;;;;;;;762908;181;917059;-63
2021/11/05 07:34:33;;;;;;;21.95;10.88;;;;;;;;;;776515;180;919883;-59
2021/11/05 07:36:59;;;;;;;17.53;11.80;;;;;;;;;;774345;180;916587;-62
2021/11/05 07:39:25;;;;;;;18.20;11.93;;;;;;;;;;762737;181;910971;-61
2021/11/05 07:41:51;;;;;;;22.43;12.73;;;;;;;;;;767802;181;916959;-61
2021/11/05 07:44:16;;;;;;;22.10;12.73;;;;;;;;;;777794;179;907889;-60
2021/11/05 07:46:44;;;;;;;17.73;11.50;;;;;;;;;;773354;177;918091;-60
2021/11/05 07:49:08;;;;;;;19.63;11.73;;;;;;;;;;767797;180;921256;-62
2021/11/05 07:51:34;;;;;;;15.07;11.27;;;;;;;;;;778196;179;916851;-60
2021/11/05 07:54:00;;;;;;;19.90;12.43;;;;;;;;;;769558;179;912220;-62
2021/11/05 07:56:26;;;;;;;20.80;12.20;;;;;;;;;;770843;181;917979;-62
2021/11/05 07:58:51;;;;;;;17.27;11.43;;;;;;;;;;775942;179;920632;-62
2021/11/05 08:01:17;;;;;;;19.27;12.00;;;;;;;;;;773849;179;915643;-62
2021/11/05 08:03:44;;;;;;;19.43;12.37;;;;;;;;;;768889;180;925291;-62
2021/11/05 08:06:09;;;;;;;22.13;12.40;;;;;;;;;;764955;180;914157;-62
2021/11/05 08:08:35;;;;;;;22.13;13.90;;;;;;;;;;774987;180;915063;-63
2021/11/05 08:11:01;;;;;;;21.23;13.63;;;;;;;;;;770855;180;920033;-63
2021/11/05 08:13:27;;;;;;;21.60;12.67;;;;;;;;;;771970;180;913403;-63
2021/11/05 08:15:52;;;;;;;26.03;14.17;;;;;;;;;;775811;180;909760;-63
2021/11/05 08:18:18;;;;;;;18.83;12.60;;;;;;;;;;768105;180;918375;-63
2021/11/05 08:20:44;;;;;;;19.03;11.90;;;;;;;;;;770175;180;919971;-63
2021/11/05 08:23:10;;;;;;;15.32;10.50;;;;;;;;;;776294;179;915774;-63
2021/11/05 08:25:36;;;;;;;15.40;11.30;;;;;;;;;;771112;181;915772;-62
2021/11/05 08:28:02;;;;;;;11.37;8.70;;;;;;;;;;765059;181;917346;-63
2021/11/05 08:30:27;;;;;;;13.13;8.07;;;;;;;;;;768773;180;914880;-63
2021/11/05 08:32:53;;;;;;;13.70;8.00;;;;;;;;;;763755;183;919721;-61
2021/11/05 08:35:19;;;;;;;13.65;9.32;;;;;;;;;;766411;180;915512;-63
2021/11/05 08:37:45;;;;;;;10.53;8.00;;;;;;;;;;765871;181;916686;-64
2021/11/05 08:40:11;;;;;;;11.03;7.30;;;;;;;;;;774522;180;910184;-63
2021/11/05 08:42:37;;;;;;;9.33;6.80;;;;;;;;;;770556;179;918676;-64
2021/11/05 08:45:03;;;;;;;15.60;6.60;;;;;;;;;;763002;180;919157;-63
2021/11/05 08:47:29;;;;;;;8.77;6.50;;;;;;;;;;775016;180;920813;-64
2021/11/05 08:49:55;;;;;;;12.23;7.50;;;;;;;;;;771425;180;910447;-63
2021/11/05 08:52:20;;;;;;;8.77;6.23;;;;;;;;;;764389;180;922150;-64
2021/11/05 08:54:47;;;;;;;9.73;6.62;;;;;;;;;;771811;180;912268;-62
2021/11/05 08:57:13;;;;;;;9.07;7.10;;;;;;;;;;779758;179;914579;-63
2021/11/05 08:59:39;;;;;;;10.10;7.30;;;;;;;;;;764463;180;913156;-63
2021/11/05 09:02:04;;;;;;;10.27;5.80;;;;;;;;;;768352;180;914590;-65
2021/11/05 09:04:30;;;;;;;8.23;5.87;;;;;;;;;;776556;180;912177;-63
2021/11/05 09:06:56;;;;;;;11.10;6.70;;;;;;;;;;766901;180;915774;-65
2021/11/05 09:09:23;;;;;;;10.57;7.90;;;;;;;;;;772429;180;917187;-63
2021/11/05 09:11:50;;;;;;;8.03;5.90;;;;;;;;;;774109;180;914999;-64
2021/11/05 09:14:16;;;;;;;10.10;6.82;;;;;;;;;;774425;179;917934;-64
2021/11/05 09:16:41;;;;;;;9.07;7.03;;;;;;;;;;769680;180;911625;-64
2021/11/05 09:19:08;;;;;;;9.80;6.43;;;;;;;;;;766371;180;913492;-62
2021/11/05 09:21:34;;;;;;;9.60;6.57;;;;;;;;;;775266;181;910279;-62
2021/11/05 09:23:59;;;;;;;6.20;4.67;;;;;;;;;;768363;180;926946;-63
2021/11/05 09:26:25;;;;;;;10.43;5.70;;;;;;;;;;769877;180;920595;-63
2021/11/05 09:28:51;;;;;;;7.27;4.37;;;;;;;;;;773156;180;934574;-63
2021/11/05 09:31:17;;;;;;;7.87;5.80;;;;;;;;;;767015;180;927020;-64
2021/11/05 09:33:42;;;;;;;8.30;5.70;;;;;;;;;;764235;181;936810;-63
2021/11/05 09:36:08;;;;;;;9.30;6.57;;;;;;;;;;775176;180;914661;-63
2021/11/05 09:38:34;;;;;;;10.53;6.43;;;;;;;;;;772860;180;920529;-63
2021/11/05 09:41:00;;;;;;;6.83;4.77;;;;;;;;;;764462;180;920519;-63
2021/11/05 09:43:26;;;;;;;9.57;6.30;;;;;;;;;;774237;180;919017;-64
2021/11/05 09:45:52;;;;;;;10.43;5.37;;;;;;;;;;763757;181;918691;-62
2021/11/05 09:48:18;;;;;;;9.53;6.07;;;;;;;;;;769164;180;921923;-62
2021/11/05 09:50:44;;;;;;;7.85;6.28;;;;;;;;;;757853;180;2156584;-63
2021/11/05 09:53:09;;;;;;;8.40;5.93;;;;;;;;;;775869;180;1021620;-62
2021/11/05 09:55:35;;;;;;;8.50;5.80;;;;;;;;;;772109;180;908360;-63
2021/11/05 09:58:01;;;;;;;8.07;5.60;;;;;;;;;;769291;180;915802;-63
2021/11/05 10:00:27;;;;;;;7.50;5.40;;;;;;;;;;774745;180;920575;-62
2021/11/05 10:02:53;;;;;;;6.80;5.15;;;;;;;;;;766187;182;952111;-63
2021/11/05 10:05:18;;;;;;;7.70;5.53;;;;;;;;;;767270;181;919380;-65
2021/11/05 10:07:45;;;;;;;7.60;5.60;;;;;;;;;;762892;183;1019225;-63
2021/11/05 10:10:11;;;;;;;7.40;5.70;;;;;;;;;;738463;187;920558;-63
2021/11/05 10:12:37;;;;;;;12.00;6.87;;;;;;;;;;753057;183;917904;-64
2021/11/05 10:15:04;;;;;;;7.43;5.63;;;;;;;;;;755002;181;918730;-63
2021/11/05 10:17:31;;;;;;;7.70;5.97;;;;;;;;;;752436;186;919290;-63
2021/11/05 10:19:55;;;;;;;14.20;7.30;;;;;;;;;;757564;182;919133;-63
2021/11/05 10:22:27;;;;;;;6.73;4.83;;;;;;;;;;772471;180;919414;-63
2021/11/05 10:24:53;;;;;;;6.13;4.80;;;;;;;;;;775928;179;939633;-63
2021/11/05 10:27:19;;;;;;;6.70;5.20;;;;;;;;;;764587;179;1542558;-63
2021/11/05 10:29:44;;;;;;;10.23;5.13;;;;;;;;;;766077;180;916817;-63
2021/11/05 10:32:10;;;;;;;6.53;4.97;;;;;;;;;;770107;180;919272;-64
2021/11/05 10:34:42;;;;;;;15.13;5.80;;;;;;;;;;771764;180;934767;-64
2021/11/05 10:37:08;;;;;;;7.53;6.00;;;;;;;;;;763111;182;919161;-64
2021/11/05 10:39:34;;;;;;;6.73;4.47;;;;;;;;;;764201;181;919481;-64
2021/11/05 10:41:59;;;;;;;6.80;5.70;;;;;;;;;;777656;179;918634;-63
2021/11/05 10:44:25;;;;;;;7.60;5.07;;;;;;;;;;769503;178;946757;-67
2021/11/05 10:46:51;;;;;;;9.43;7.05;;;;;;;;;;768723;180;918435;-64
2021/11/05 10:49:22;;;;;;;6.77;5.10;;;;;;;;;;767341;180;918904;-62
2021/11/05 10:51:48;;;;;;;8.50;6.03;;;;;;;;;;771656;181;925534;-63
2021/11/05 10:54:13;;;;;;;5.90;4.63;;;;;;;;;;763236;181;919285;-64
2021/11/05 10:56:39;;;;;;;7.47;6.27;;;;;;;;;;767249;180;1020569;-63
2021/11/05 10:59:05;;;;;;;8.33;6.37;;;;;;;;;;772007;180;914565;-63
2021/11/05 11:01:34;;;;;;;9.10;6.97;;;;;;;;;;772205;180;920104;-63
2021/11/05 11:03:57;;;;;;;7.40;5.80;;;;;;;;;;764486;179;1460563;-63
2021/11/05 11:06:23;;;;;;;9.33;6.43;;;;;;;;;;772482;180;932025;-63
2021/11/05 11:09:03;;;;;;;9.50;7.23;;;;;;;;;;772361;181;916975;-64
2021/11/05 11:11:30;;;;;;;9.57;6.97;;;;;;;;;;768872;180;919924;-63
2021/11/05 11:13:56;;;;;;;7.87;6.20;;;;;;;;;;770385;180;919964;-63
2021/11/05 11:16:24;;;;;;;13.67;8.50;;;;;;;;;;768522;180;919585;-63
2021/11/05 11:18:50;;;;;;;8.80;5.97;;;;;;;;;;775414;180;917613;-64
2021/11/05 11:21:16;;;;;;;14.10;7.40;;;;;;;;;;769582;179;918669;-63
2021/11/05 11:23:42;;;;;;;10.52;7.35;;;;;;;;;;769583;180;918465;-63
2021/11/05 11:26:08;;;;;;;7.13;6.30;;;;;;;;;;772106;180;919294;-63
2021/11/05 11:28:34;;;;;;;11.17;8.03;;;;;;;;;;770361;180;920360;-64
2021/11/05 11:31:00;;;;;;;12.03;7.67;;;;;;;;;;769778;180;921720;-64
2021/11/05 11:33:25;;;;;;;9.47;7.60;;;;;;;;;;782109;180;625929;-64
2021/11/05 11:35:51;;;;;;;7.50;6.47;;;;;;;;;;770941;180;919486;-62
2021/11/05 11:38:17;;;;;;;8.87;6.57;;;;;;;;;;769668;180;1020610;-63
2021/11/05 11:40:43;;;;;;;9.77;6.50;;;;;;;;;;771674;180;925535;-62
2021/11/05 11:43:09;;;;;;;9.80;6.37;;;;;;;;;;772457;179;918115;-62
2021/11/05 11:45:35;;;;;;;10.03;7.87;;;;;;;;;;771762;180;922548;-64
2021/11/05 11:48:00;;;;;;;8.33;6.53;;;;;;;;;;770559;180;942398;-63
2021/11/05 11:50:26;;;;;;;10.23;7.93;;;;;;;;;;773113;180;914437;-63
2021/11/05 11:52:59;;;;;;;9.20;6.47;;;;;;;;;;772078;179;923796;-63
2021/11/05 11:55:25;;;;;;;12.20;8.20;;;;;;;;;;769264;180;919343;-64
2021/11/05 11:58:06;;;;;;;7.90;6.50;;;;;;;;;;768040;180;920640;-63
2021/11/05 12:00:31;;;;;;;10.07;7.70;;;;;;;;;;764821;180;918562;-62
2021/11/05 12:03:01;;;;;;;10.90;7.83;;;;;;;;;;765913;181;911077;-64
2021/11/05 12:05:39;;;;;;;8.33;6.10;;;;;;;;;;758031;181;912669;-64
2021/11/05 12:08:11;;;;;;;11.23;8.10;;;;;;;;;;772121;180;912166;-63
2021/11/05 12:10:37;;;;;;;8.90;6.40;;;;;;;;;;764646;179;911635;-63
2021/11/05 12:13:02;;;;;;;9.23;6.77;;;;;;;;;;771778;180;913779;-63
2021/11/05 12:15:28;;;;;;;10.30;8.30;;;;;;;;;;772472;180;915664;-64
2021/11/05 12:18:09;;;;;;;10.27;8.50;;;;;;;;;;768589;180;919573;-62
2021/11/05 12:20:35;;;;;;;9.10;7.70;;;;;;;;;;770316;180;914238;-62
2021/11/05 12:23:15;;;;;;;11.70;7.33;;;;;;;;;;776239;180;907891;-63
2021/11/05 12:25:40;;;;;;;9.23;7.17;;;;;;;;;;769745;183;914532;-66
2021/11/05 12:28:16;;;;;;;10.70;8.13;;;;;;;;;;769034;180;914047;-62
2021/11/05 12:30:42;;;;;;;7.17;6.40;;;;;;;;;;769740;181;926369;-62
2021/11/05 12:33:13;;;;;;;10.70;7.00;;;;;;;;;;773144;180;913215;-63
2021/11/05 12:35:40;;;;;;;9.07;6.83;;;;;;;;;;769480;180;918481;-62
2021/11/05 12:38:08;;;;;;;8.37;7.20;;;;;;;;;;778446;179;913671;-63
2021/11/05 12:40:37;;;;;;;8.40;7.10;;;;;;;;;;767416;180;915959;-63
2021/11/05 12:43:01;;;;;;;11.50;7.43;;;;;;;;;;768026;180;916187;-64
2021/11/05 12:45:44;;;;;;;12.20;6.60;;;;;;;;;;774204;180;916992;-63
2021/11/05 12:48:10;;;;;;;10.43;7.23;;;;;;;;;;775399;180;915522;-63
2021/11/05 12:50:36;;;;;;;8.70;6.07;;;;;;;;;;767263;180;918582;-63
2021/11/05 12:53:02;;;;;;;8.50;6.33;;;;;;;;;;768180;180;919072;-63
2021/11/05 12:55:28;;;;;;;7.43;5.70;;;;;;;;;;772495;180;919065;-63
2021/11/05 12:57:54;;;;;;;10.37;7.20;;;;;;;;;;770051;180;939706;-63
2021/11/05 13:00:20;;;;;;;9.77;6.70;;;;;;;;;;770949;180;917648;-63
2021/11/05 13:02:49;;;;;;;8.90;7.23;;;;;;;;;;769857;180;920079;-63
2021/11/05 13:05:16;;;;;;;7.70;5.97;;;;;;;;;;773326;180;918251;-63
2021/11/05 13:07:41;;;;;;;9.40;6.90;;;;;;;;;;770651;180;920204;-62
2021/11/05 13:10:07;;;;;;;12.53;7.20;;;;;;;;;;766321;180;918141;-62
2021/11/05 13:12:35;;;;;;;9.83;7.07;;;;;;;;;;771060;180;918426;-62
2021/11/05 13:14:59;;;;;;;19.50;7.10;;;;;;;;;;766820;180;918488;-63
2021/11/05 13:17:34;;;;;;;9.93;6.43;;;;;;;;;;765800;180;920325;-64
2021/11/05 13:20:01;;;;;;;9.30;7.33;;;;;;;;;;765667;180;918242;-63
2021/11/05 13:22:27;;;;;;;9.50;7.50;;;;;;;;;;775072;180;917626;-62
2021/11/05 13:24:53;;;;;;;9.07;6.70;;;;;;;;;;769051;180;1240045;-62
2021/11/05 13:27:18;;;;;;;9.03;6.30;;;;;;;;;;768433;180;921055;-63
2021/11/05 13:29:45;;;;;;;9.93;7.30;;;;;;;;;;769556;180;919303;-62
2021/11/05 13:32:26;;;;;;;11.40;8.57;;;;;;;;;;779743;178;919711;-62
2021/11/05 13:34:52;;;;;;;10.93;7.77;;;;;;;;;;757592;183;933170;-63
2021/11/05 13:37:17;;;;;;;9.93;7.17;;;;;;;;;;759036;180;919910;-61
2021/11/05 13:39:43;;;;;;;11.20;8.03;;;;;;;;;;763742;180;920089;-62
2021/11/05 13:42:13;;;;;;;10.20;7.60;;;;;;;;;;767249;181;920099;-62
2021/11/05 13:44:40;;;;;;;10.90;7.93;;;;;;;;;;769128;179;919079;-62
2021/11/05 13:47:11;;;;;;;9.77;7.50;;;;;;;;;;755282;183;919494;-62
2021/11/05 13:49:37;;;;;;;7.93;6.40;;;;;;;;;;769803;179;927449;-66
2021/11/05 13:52:03;;;;;;;8.10;5.83;;;;;;;;;;769564;180;919306;-62
2021/11/05 13:54:28;;;;;;;10.35;6.45;;;;;;;;;;764583;180;919345;-62
2021/11/05 13:56:54;;;;;;;8.17;5.37;;;;;;;;;;768189;180;920522;-62
2021/11/05 13:59:23;;;;;;;12.17;6.70;;;;;;;;;;768363;179;920392;-62
2021/11/05 14:01:47;;;;;;;11.40;6.17;;;;;;;;;;754163;182;942015;-62
2021/11/05 14:04:13;;;;;;;11.43;7.03;;;;;;;;;;749652;183;921734;-62
2021/11/05 14:06:39;;;;;;;10.77;6.97;;;;;;;;;;758979;182;877311;-62
2021/11/05 14:09:05;;;;;;;9.00;7.07;;;;;;;;;;763737;180;919785;-63
2021/11/05 14:11:32;;;;;;;11.10;6.20;;;;;;;;;;762371;180;915903;-62
2021/11/05 14:13:58;;;;;;;9.10;6.33;;;;;;;;;;763181;180;919343;-62
2021/11/05 14:16:25;;;;;;;8.40;6.23;;;;;;;;;;755616;183;915298;-62
2021/11/05 14:18:49;;;;;;;8.07;6.03;;;;;;;;;;750928;184;920155;-62